createdAt,value
2023-05-10T00:02:04.813Z,4.93
2023-05-10T00:04:34.075Z,5.10
2023-05-10T00:07:02.441Z,5.17
2023-05-10T00:09:30.352Z,5.13
2023-05-10T00:11:59.522Z,5.00
2023-05-10T00:14:27.578Z,5.10
2023-05-10T00:16:55.489Z,4.83
2023-05-10T00:19:23.427Z,5.10
2023-05-10T00:21:52.744Z,5.27
2023-05-10T00:24:20.662Z,5.40
2023-05-10T00:26:48.514Z,4.87
2023-05-10T00:29:16.390Z,5.40
2023-05-10T00:31:44.263Z,5.30
2023-05-10T00:34:12.241Z,4.60
2023-05-10T00:36:40.088Z,5.17
2023-05-10T00:39:09.432Z,5.57
2023-05-10T00:41:37.318Z,5.27
2023-05-10T00:44:05.354Z,5.83
2023-05-10T00:46:33.571Z,5.80
2023-05-10T00:49:01.724Z,5.30
2023-05-10T00:51:29.984Z,5.07
2023-05-10T00:53:57.968Z,5.27
2023-05-10T00:56:27.945Z,5.20
2023-05-10T00:58:55.938Z,4.90
2023-05-10T01:01:23.926Z,5.37
2023-05-10T01:03:52.093Z,5.27
2023-05-10T01:06:20.083Z,5.07
2023-05-10T01:08:48.431Z,5.30
2023-05-10T01:11:16.697Z,5.00
2023-05-10T01:13:52.530Z,5.50
2023-05-10T01:16:20.490Z,5.90
2023-05-10T01:18:49.254Z,5.17
2023-05-10T01:21:29.989Z,5.20
2023-05-10T01:24:21.567Z,5.40
2023-05-10T01:27:15.535Z,4.97
2023-05-10T01:30:15.879Z,5.43
2023-05-10T01:32:53.935Z,5.27
2023-05-10T01:35:28.933Z,5.70
2023-05-10T01:38:06.751Z,5.17
2023-05-10T01:40:39.838Z,4.67
2023-05-10T01:43:19.775Z,4.97
2023-05-10T01:45:56.763Z,4.80
2023-05-10T01:48:30.243Z,4.70
2023-05-10T01:51:00.384Z,5.10
2023-05-10T01:53:29.995Z,4.90
2023-05-10T01:55:59.521Z,5.13
2023-05-10T01:58:31.408Z,5.17
2023-05-10T02:01:02.839Z,5.60
2023-05-10T02:03:34.442Z,5.20
2023-05-10T02:06:02.632Z,5.03
2023-05-10T02:08:31.116Z,5.43
2023-05-10T02:11:00.962Z,4.77
2023-05-10T02:13:31.155Z,5.00
2023-05-10T02:15:59.756Z,5.10
2023-05-10T02:18:29.343Z,5.10
2023-05-10T02:21:00.222Z,4.73
2023-05-10T02:23:28.648Z,4.93
2023-05-10T02:25:59.064Z,4.80
2023-05-10T02:28:28.975Z,4.90
2023-05-10T02:30:58.391Z,4.40
2023-05-10T02:33:28.495Z,4.77
2023-05-10T02:35:58.744Z,5.10
2023-05-10T02:38:29.183Z,4.70
2023-05-10T02:40:58.460Z,5.10
2023-05-10T02:43:27.779Z,4.60
2023-05-10T02:45:55.820Z,4.70
2023-05-10T02:48:23.800Z,4.77
2023-05-10T02:50:54.459Z,5.00
2023-05-10T02:53:26.029Z,5.13
2023-05-10T02:55:58.479Z,4.63
2023-05-10T02:58:26.446Z,5.10
2023-05-10T03:00:54.609Z,5.30
2023-05-10T03:03:23.120Z,5.43
2023-05-10T03:05:51.043Z,5.53
2023-05-10T03:08:19.099Z,5.30
2023-05-10T03:10:57.840Z,5.23
2023-05-10T03:13:36.310Z,5.40
2023-05-10T03:16:10.658Z,5.67
2023-05-10T03:18:46.317Z,5.63
2023-05-10T03:21:18.457Z,5.20
2023-05-10T03:23:51.136Z,5.03
2023-05-10T03:26:26.464Z,5.27
2023-05-10T03:28:55.143Z,5.80
2023-05-10T03:31:23.488Z,5.73
2023-05-10T03:33:52.176Z,5.80
2023-05-10T03:36:20.408Z,5.93
2023-05-10T03:38:48.456Z,5.40
2023-05-10T03:41:16.358Z,5.57
2023-05-10T03:43:45.614Z,5.97
2023-05-10T03:46:13.503Z,5.40
2023-05-10T03:48:41.564Z,5.67
2023-05-10T03:51:09.460Z,5.63
2023-05-10T03:53:37.299Z,6.10
2023-05-10T03:56:05.604Z,6.43
2023-05-10T03:58:33.500Z,7.00
2023-05-10T04:01:03.316Z,6.63
2023-05-10T04:03:31.390Z,7.03
2023-05-10T04:06:03.380Z,6.97
2023-05-10T04:08:31.496Z,6.60
2023-05-10T04:11:07.685Z,7.00
2023-05-10T04:13:35.936Z,7.57
2023-05-10T04:16:05.733Z,7.43
2023-05-10T04:18:33.798Z,6.43
2023-05-10T04:21:01.736Z,6.63
2023-05-10T04:23:29.738Z,7.40
2023-05-10T04:26:01.996Z,7.57
2023-05-10T04:28:29.878Z,7.93
2023-05-10T04:31:03.570Z,7.80
2023-05-10T04:33:33.170Z,7.37
2023-05-10T04:36:01.884Z,7.90
2023-05-10T04:38:29.914Z,7.80
2023-05-10T04:41:06.284Z,7.50
2023-05-10T04:43:34.240Z,7.80
2023-05-10T04:46:02.147Z,7.30
2023-05-10T04:48:30.156Z,7.63
2023-05-10T04:50:59.707Z,8.10
2023-05-10T04:53:27.758Z,8.23
2023-05-10T04:55:55.773Z,8.03
2023-05-10T04:58:23.677Z,8.37
2023-05-10T05:00:51.611Z,8.33
2023-05-10T05:03:19.662Z,7.90
2023-05-10T05:05:47.680Z,8.23
2023-05-10T05:08:17.077Z,8.20
2023-05-10T05:10:45.011Z,8.43
2023-05-10T05:13:15.232Z,8.40
2023-05-10T05:15:43.200Z,8.53
2023-05-10T05:18:11.181Z,8.30
2023-05-10T05:20:39.050Z,8.90
2023-05-10T05:23:06.914Z,8.20
2023-05-10T05:25:36.636Z,8.50
2023-05-10T05:28:04.556Z,9.60
2023-05-10T05:30:32.601Z,9.73
2023-05-10T05:33:00.734Z,9.13
2023-05-10T05:35:28.614Z,9.67
2023-05-10T05:37:56.911Z,8.90
2023-05-10T05:40:24.965Z,9.00
2023-05-10T05:42:54.223Z,9.23
2023-05-10T05:45:22.194Z,9.37
2023-05-10T05:47:50.080Z,9.07
2023-05-10T05:50:18.106Z,9.33
2023-05-10T05:52:45.970Z,9.20
2023-05-10T05:55:13.923Z,9.57
2023-05-10T05:57:41.913Z,9.53
2023-05-10T06:00:12.187Z,9.07
2023-05-10T06:02:40.246Z,9.43
2023-05-10T06:05:09.271Z,9.50
2023-05-10T06:07:37.264Z,8.90
2023-05-10T06:10:05.879Z,9.97
2023-05-10T06:12:33.688Z,9.80
2023-05-10T06:15:01.546Z,9.83
2023-05-10T06:17:31.013Z,9.33
2023-05-10T06:19:58.925Z,9.53
2023-05-10T06:22:26.824Z,8.90
2023-05-10T06:24:54.695Z,9.37
2023-05-10T06:27:22.695Z,9.10
2023-05-10T06:29:54.217Z,8.70
2023-05-10T06:32:24.576Z,8.80
2023-05-10T06:34:53.861Z,10.07
2023-05-10T06:37:21.727Z,9.33
2023-05-10T06:39:49.629Z,9.40
2023-05-10T06:42:17.535Z,8.97
2023-05-10T06:44:45.576Z,9.10
2023-05-10T06:47:13.552Z,9.40
2023-05-10T06:49:41.421Z,9.73
2023-05-10T06:52:10.632Z,9.37
2023-05-10T06:54:38.485Z,9.00
2023-05-10T06:57:15.971Z,9.03
2023-05-10T06:59:47.594Z,8.93
2023-05-10T07:02:15.940Z,8.80
2023-05-10T07:04:43.804Z,9.63
2023-05-10T07:07:13.217Z,9.40
2023-05-10T07:09:41.106Z,9.00
2023-05-10T07:12:11.139Z,8.73
2023-05-10T07:14:40.100Z,9.30
2023-05-10T07:17:07.991Z,9.77
2023-05-10T07:19:36.358Z,9.77
2023-05-10T07:22:04.239Z,9.63
2023-05-10T07:24:34.168Z,9.10
2023-05-10T07:27:02.132Z,9.37
2023-05-10T07:29:30.515Z,9.30
2023-05-10T07:31:59.096Z,9.00
2023-05-10T07:34:27.173Z,8.63
2023-05-10T07:36:55.261Z,8.53
2023-05-10T07:39:27.622Z,9.07
2023-05-10T07:41:57.990Z,8.97
2023-05-10T07:44:26.336Z,8.00
2023-05-10T07:46:54.238Z,7.87
2023-05-10T07:49:22.559Z,7.53
2023-05-10T07:51:50.452Z,7.13
2023-05-10T07:54:18.319Z,6.73
2023-05-10T07:56:48.295Z,5.90
2023-05-10T07:59:19.595Z,5.53
2023-05-10T08:01:47.576Z,5.93
2023-05-10T08:04:15.663Z,5.20
2023-05-10T08:06:43.565Z,4.90
2023-05-10T08:09:11.984Z,4.73
2023-05-10T08:11:39.917Z,4.50
2023-05-10T08:14:07.773Z,4.70
2023-05-10T08:16:37.057Z,4.83
2023-05-10T08:19:07.596Z,4.97
2023-05-10T08:21:35.529Z,4.90
2023-05-10T08:24:03.590Z,4.80
2023-05-10T08:26:31.436Z,5.20
2023-05-10T08:28:59.398Z,5.23
2023-05-10T08:31:27.310Z,5.37
2023-05-10T08:33:56.585Z,4.57
2023-05-10T08:36:25.541Z,4.50
2023-05-10T08:38:53.820Z,3.60
2023-05-10T08:41:22.763Z,4.23
2023-05-10T08:43:52.060Z,4.33
2023-05-10T08:46:21.963Z,4.63
2023-05-10T08:48:52.424Z,4.03
2023-05-10T08:51:27.676Z,3.53
2023-05-10T08:53:57.517Z,2.83
2023-05-10T08:56:26.210Z,2.00
2023-05-10T08:58:54.234Z,2.60
2023-05-10T09:01:23.436Z,2.50
2023-05-10T09:03:52.796Z,1.93
2023-05-10T09:06:22.461Z,1.27
2023-05-10T09:08:50.542Z,1.00
2023-05-10T09:11:18.579Z,1.00
2023-05-10T09:13:46.926Z,0.90
2023-05-10T09:18:48.115Z,0.77
2023-05-10T09:21:16.162Z,0.83
2023-05-10T09:23:48.700Z,0.80
2023-05-10T09:26:17.207Z,0.70
2023-05-10T09:28:55.296Z,0.80
2023-05-10T09:31:23.566Z,0.70
2023-05-10T09:33:52.570Z,0.70
2023-05-10T09:36:20.734Z,0.80
2023-05-10T09:38:51.864Z,1.13
2023-05-10T09:41:21.262Z,0.70
2023-05-10T09:43:49.406Z,0.67
2023-05-10T09:46:17.697Z,0.80
2023-05-10T09:48:47.283Z,0.73
2023-05-10T09:51:21.634Z,1.03
2023-05-10T09:53:51.727Z,0.90
2023-05-10T09:56:39.642Z,0.80
2023-05-10T09:59:08.643Z,0.70
2023-05-10T10:01:36.706Z,0.60
2023-05-10T10:04:06.891Z,0.70
2023-05-10T10:06:39.090Z,0.80
2023-05-10T10:09:09.290Z,0.60
2023-05-10T10:11:38.228Z,0.60
2023-05-10T10:14:06.319Z,0.97
2023-05-10T10:16:34.878Z,0.83
2023-05-10T10:19:03.304Z,0.67
2023-05-10T10:21:32.062Z,0.87
2023-05-10T10:23:59.938Z,0.60
2023-05-10T10:26:31.513Z,0.77
2023-05-10T10:29:12.398Z,0.80
2023-05-10T10:31:47.094Z,0.90
2023-05-10T10:34:27.960Z,1.13
2023-05-10T10:36:57.329Z,0.80
2023-05-10T10:39:26.734Z,0.77
2023-05-10T10:41:57.861Z,0.60
2023-05-10T10:44:27.842Z,0.70
2023-05-10T10:47:23.962Z,0.80
2023-05-10T10:49:53.607Z,0.40
2023-05-10T10:52:29.404Z,0.53
2023-05-10T10:55:02.570Z,0.70
2023-05-10T10:57:34.464Z,0.63
2023-05-10T11:00:26.051Z,0.60
2023-05-10T11:02:55.571Z,0.63
2023-05-10T11:05:44.648Z,0.63
2023-05-10T11:08:18.270Z,0.70
2023-05-10T11:10:54.670Z,0.50
2023-05-10T11:13:35.488Z,0.57
2023-05-10T11:16:14.733Z,0.60
2023-05-10T11:18:53.722Z,0.60
2023-05-10T11:21:21.724Z,1.00
2023-05-10T11:23:57.201Z,1.10
2023-05-10T11:26:26.607Z,0.90
2023-05-10T11:28:57.379Z,0.63
2023-05-10T11:31:27.684Z,1.37
2023-05-10T11:33:58.416Z,1.90
2023-05-10T11:36:28.346Z,1.87
2023-05-10T11:38:57.388Z,2.07
2023-05-10T11:41:26.953Z,1.80
2023-05-10T11:43:57.002Z,2.10
2023-05-10T11:46:26.093Z,2.07
2023-05-10T11:48:55.467Z,2.43
2023-05-10T11:51:25.065Z,2.57
2023-05-10T11:53:54.771Z,2.70
2023-05-10T11:56:23.063Z,0.70
2023-05-10T11:58:57.756Z,0.57
2023-05-10T12:01:26.310Z,0.80
2023-05-10T12:03:56.483Z,0.50
2023-05-10T12:06:24.683Z,0.60
2023-05-10T12:08:54.713Z,0.80
2023-05-10T12:11:26.465Z,0.90
2023-05-10T12:13:54.332Z,0.60
2023-05-10T12:16:25.393Z,0.50
2023-05-10T12:18:54.593Z,0.77
2023-05-10T12:21:23.087Z,0.60
2023-05-10T12:23:52.845Z,0.50
2023-05-10T12:26:23.646Z,0.67
2023-05-10T12:28:51.482Z,0.53
2023-05-10T12:31:19.708Z,0.80
2023-05-10T12:33:50.341Z,0.60
2023-05-10T12:36:19.045Z,0.70
2023-05-10T12:38:49.059Z,0.63
2023-05-10T12:41:18.049Z,0.73
2023-05-10T12:43:47.558Z,0.67
2023-05-10T12:46:17.220Z,0.70
2023-05-10T12:48:47.256Z,0.90
2023-05-10T12:51:20.474Z,0.80
2023-05-10T12:53:49.760Z,0.87
2023-05-10T12:56:17.723Z,0.60
2023-05-10T12:58:49.218Z,0.70
2023-05-10T13:01:17.239Z,0.93
2023-05-10T13:03:45.201Z,1.00
2023-05-10T13:06:14.461Z,0.83
2023-05-10T13:08:43.707Z,1.20
2023-05-10T13:11:11.640Z,1.07
2023-05-10T13:13:39.602Z,0.90
2023-05-10T13:16:08.230Z,1.03
2023-05-10T13:18:36.062Z,0.80
2023-05-10T13:21:04.989Z,1.00
2023-05-10T13:23:32.982Z,0.93
2023-05-10T13:26:02.535Z,1.10
2023-05-10T13:28:31.176Z,1.10
2023-05-10T13:31:00.999Z,1.17
2023-05-10T13:33:28.886Z,1.30
2023-05-10T13:35:56.757Z,1.20
2023-05-10T13:38:24.605Z,0.97
2023-05-10T13:40:54.079Z,1.17
2023-05-10T13:43:23.437Z,1.30
2023-05-10T13:45:51.344Z,1.50
2023-05-10T13:48:19.228Z,1.20
2023-05-10T13:50:47.256Z,2.83
2023-05-10T13:53:15.415Z,1.07
2023-05-10T13:55:43.704Z,1.20
2023-05-10T13:58:11.661Z,0.90
2023-05-10T14:00:43.214Z,0.73
2023-05-10T14:03:12.664Z,1.07
2023-05-10T14:05:40.759Z,1.10
2023-05-10T14:08:10.364Z,1.00
2023-05-10T14:10:39.068Z,1.10
2023-05-10T14:13:07.217Z,1.10
2023-05-10T14:15:35.030Z,1.00
2023-05-10T14:18:04.579Z,1.20
2023-05-10T14:20:34.642Z,1.50
2023-05-10T14:23:02.631Z,1.30
2023-05-10T14:25:30.503Z,1.40
2023-05-10T14:28:00.546Z,1.47
2023-05-10T14:30:28.458Z,1.73
2023-05-10T14:32:56.503Z,1.20
2023-05-10T14:35:26.230Z,1.30
2023-05-10T14:37:54.223Z,1.33
2023-05-10T14:40:22.231Z,0.93
2023-05-10T14:42:50.289Z,1.00
2023-05-10T14:45:18.531Z,1.20
2023-05-10T14:47:46.539Z,1.10
2023-05-10T14:50:24.725Z,1.00
2023-05-10T14:53:03.965Z,1.10
2023-05-10T14:55:31.844Z,1.37
2023-05-10T14:57:59.815Z,1.40
2023-05-10T15:00:28.696Z,1.40
2023-05-10T15:02:57.138Z,1.47
2023-05-10T15:05:25.975Z,1.30
2023-05-10T15:07:54.254Z,1.80
2023-05-10T15:10:23.530Z,1.67
2023-05-10T15:12:52.098Z,1.70
2023-05-10T15:15:19.955Z,1.63
2023-05-10T15:17:47.977Z,1.63
2023-05-10T15:20:16.138Z,1.50
2023-05-10T15:22:44.089Z,1.60
2023-05-10T15:25:12.008Z,1.57
2023-05-10T15:27:41.204Z,1.40
2023-05-10T15:30:10.231Z,1.57
2023-05-10T15:32:38.219Z,1.70
2023-05-10T15:35:06.999Z,1.67
2023-05-10T15:37:34.883Z,1.87
2023-05-10T15:40:04.686Z,2.00
2023-05-10T15:42:33.392Z,1.70
2023-05-10T15:45:02.641Z,1.97
2023-05-10T15:47:32.271Z,2.00
2023-05-10T15:50:00.287Z,2.07
2023-05-10T15:52:28.269Z,1.90
2023-05-10T15:54:56.576Z,2.40
2023-05-10T15:57:24.418Z,3.40
2023-05-10T15:59:52.504Z,3.43
2023-05-10T16:02:22.695Z,2.63
2023-05-10T16:04:51.647Z,1.60
2023-05-10T16:07:19.531Z,1.67
2023-05-10T16:09:49.408Z,1.87
2023-05-10T16:12:17.369Z,2.30
2023-05-10T16:14:45.546Z,1.70
2023-05-10T16:17:15.208Z,2.03
2023-05-10T16:19:44.644Z,2.00
2023-05-10T16:22:12.617Z,1.90
2023-05-10T16:24:40.469Z,1.87
2023-05-10T16:27:08.331Z,2.00
2023-05-10T16:29:36.210Z,2.00
2023-05-10T16:32:04.102Z,2.20
2023-05-10T16:34:32.000Z,2.20
2023-05-10T16:37:01.211Z,2.37
2023-05-10T16:39:29.240Z,3.03
2023-05-10T16:41:57.080Z,2.87
2023-05-10T16:44:25.972Z,2.97
2023-05-10T16:46:54.964Z,2.70
2023-05-10T16:49:24.456Z,2.50
2023-05-10T16:51:53.939Z,2.17
2023-05-10T16:54:23.386Z,2.30
2023-05-10T16:56:51.238Z,2.53
2023-05-10T16:59:19.133Z,2.83
2023-05-10T17:01:47.244Z,3.00
2023-05-10T17:04:15.357Z,3.17
2023-05-10T17:06:43.469Z,3.40
2023-05-10T17:09:12.122Z,2.70
2023-05-10T17:11:42.114Z,2.93
2023-05-10T17:14:10.187Z,3.00
2023-05-10T17:16:38.321Z,2.87
2023-05-10T17:19:06.249Z,2.63
2023-05-10T17:21:34.122Z,2.80
2023-05-10T17:24:01.992Z,2.90
2023-05-10T17:26:30.113Z,3.20
2023-05-10T17:28:59.707Z,3.90
2023-05-10T17:31:28.767Z,3.50
2023-05-10T17:33:56.713Z,3.33
2023-05-10T17:36:24.567Z,3.67
2023-05-10T17:38:52.496Z,3.20
2023-05-10T17:41:20.375Z,3.67
2023-05-10T17:43:48.246Z,3.80
2023-05-10T17:46:17.932Z,3.00
2023-05-10T17:48:45.856Z,3.90
2023-05-10T17:51:13.707Z,4.20
2023-05-10T17:53:41.757Z,3.30
2023-05-10T17:56:09.764Z,3.13
2023-05-10T17:58:38.389Z,3.80
2023-05-10T18:01:06.693Z,4.00
2023-05-10T18:03:36.161Z,3.50
2023-05-10T18:06:04.322Z,3.37
2023-05-10T18:08:33.108Z,3.73
2023-05-10T18:11:01.192Z,3.10
2023-05-10T18:13:29.026Z,3.43
2023-05-10T18:15:57.124Z,3.43
2023-05-10T18:18:25.380Z,3.57
2023-05-10T18:20:57.694Z,3.10
2023-05-10T18:23:26.386Z,2.90
2023-05-10T18:25:54.262Z,3.93
2023-05-10T18:28:22.137Z,5.63
2023-05-10T18:30:50.084Z,7.60
2023-05-10T18:33:18.010Z,3.63
2023-05-10T18:35:45.854Z,3.33
2023-05-10T18:38:15.161Z,3.33
2023-05-10T18:40:43.360Z,3.07
2023-05-10T18:43:11.482Z,2.73
2023-05-10T18:45:40.155Z,3.20
2023-05-10T18:48:08.379Z,3.13
2023-05-10T18:50:36.492Z,2.60
2023-05-10T18:53:04.715Z,2.03
2023-05-10T18:55:34.020Z,3.40
2023-05-10T18:58:01.882Z,3.03
2023-05-10T19:00:30.059Z,3.07
2023-05-10T19:02:58.034Z,2.43
2023-05-10T19:05:29.971Z,3.10
2023-05-10T19:07:57.949Z,2.70
2023-05-10T19:10:25.845Z,3.00
2023-05-10T19:12:55.148Z,2.90
2023-05-10T19:15:23.468Z,2.93
2023-05-10T19:17:52.064Z,2.80
2023-05-10T19:20:20.083Z,2.90
2023-05-10T19:23:02.099Z,2.83
2023-05-10T19:25:36.333Z,3.20
2023-05-10T19:28:05.546Z,2.97
2023-05-10T19:30:33.474Z,3.10
2023-05-10T19:33:04.578Z,3.50
2023-05-10T19:35:32.624Z,3.17
2023-05-10T19:38:00.640Z,3.43
2023-05-10T19:40:28.700Z,3.20
2023-05-10T19:42:57.119Z,3.20
2023-05-10T19:45:27.015Z,3.50
2023-05-10T19:47:55.249Z,3.17
2023-05-10T19:50:23.323Z,3.60
2023-05-10T19:52:51.561Z,3.10
2023-05-10T19:55:27.903Z,3.30
2023-05-10T19:57:55.935Z,3.20
2023-05-10T20:00:23.951Z,3.10
2023-05-10T20:02:53.233Z,2.93
2023-05-10T20:05:21.293Z,3.33
2023-05-10T20:07:49.170Z,3.17
2023-05-10T20:10:17.473Z,3.47
2023-05-10T20:12:51.056Z,3.37
2023-05-10T20:15:20.063Z,3.40
2023-05-10T20:17:48.239Z,3.77
2023-05-10T20:20:18.268Z,3.90
2023-05-10T20:22:46.783Z,3.30
2023-05-10T20:25:15.925Z,3.80
2023-05-10T20:27:43.980Z,3.40
2023-05-10T20:30:12.544Z,3.73
2023-05-10T20:32:40.774Z,3.27
2023-05-10T20:35:09.198Z,3.67
2023-05-10T20:37:39.681Z,3.40
2023-05-10T20:40:08.610Z,4.17
2023-05-10T20:42:36.571Z,3.13
2023-05-10T20:45:04.682Z,2.97
2023-05-10T20:47:32.663Z,3.40
2023-05-10T20:50:00.784Z,2.83
2023-05-10T20:52:28.674Z,3.00
2023-05-10T20:54:57.888Z,3.33
2023-05-10T20:57:25.913Z,3.50
2023-05-10T20:59:54.658Z,3.33
2023-05-10T21:02:22.499Z,3.30
2023-05-10T21:04:50.580Z,3.17
2023-05-10T21:07:18.532Z,3.00
2023-05-10T21:09:46.399Z,3.17
2023-05-10T21:12:15.646Z,3.40
2023-05-10T21:14:44.307Z,3.47
2023-05-10T21:17:12.233Z,3.80
2023-05-10T21:19:40.058Z,3.97
2023-05-10T21:22:07.899Z,3.63
2023-05-10T21:24:35.928Z,3.90
2023-05-10T21:27:04.728Z,3.70
2023-05-10T21:29:34.253Z,3.93
2023-05-10T21:32:02.488Z,3.70
2023-05-10T21:34:31.056Z,3.97
2023-05-10T21:36:58.963Z,4.60
2023-05-10T21:39:26.837Z,4.50
2023-05-10T21:41:54.686Z,4.40
2023-05-10T21:44:22.663Z,4.80
2023-05-10T21:46:51.933Z,4.27
2023-05-10T21:49:19.788Z,4.70
2023-05-10T21:51:48.715Z,4.40
2023-05-10T21:54:16.536Z,4.83
2023-05-10T21:56:44.502Z,4.90
2023-05-10T21:59:12.368Z,4.80
2023-05-10T22:01:40.273Z,4.67
2023-05-10T22:04:09.525Z,4.80
2023-05-10T22:06:37.426Z,4.80
2023-05-10T22:09:05.756Z,5.27
2023-05-10T22:11:33.677Z,4.97
2023-05-10T22:14:01.527Z,5.10
2023-05-10T22:16:29.984Z,5.63
2023-05-10T22:18:57.879Z,5.37
2023-05-10T22:21:27.125Z,5.27
2023-05-10T22:23:54.979Z,5.50
2023-05-10T22:26:23.142Z,5.50
2023-05-10T22:28:51.291Z,5.83
2023-05-10T22:31:19.191Z,5.50
2023-05-10T22:33:47.231Z,5.80
2023-05-10T22:36:15.238Z,5.87
2023-05-10T22:38:44.502Z,5.60
2023-05-10T22:41:12.607Z,5.57
2023-05-10T22:43:40.451Z,5.93
2023-05-10T22:46:08.374Z,6.07
2023-05-10T22:48:37.199Z,5.60
2023-05-10T22:51:05.352Z,5.67
2023-05-10T22:53:33.327Z,5.77
2023-05-10T22:56:02.687Z,5.63
2023-05-10T22:58:30.562Z,5.80
2023-05-10T23:00:58.479Z,6.00
2023-05-10T23:03:26.800Z,5.50
2023-05-10T23:05:54.647Z,6.13
2023-05-10T23:08:22.494Z,5.73
2023-05-10T23:10:50.310Z,5.73
2023-05-10T23:13:20.977Z,6.13
2023-05-10T23:15:48.879Z,5.40
2023-05-10T23:18:18.398Z,5.87
2023-05-10T23:20:46.279Z,5.90
2023-05-10T23:23:14.115Z,5.10
2023-05-10T23:25:41.953Z,5.33
2023-05-10T23:28:09.795Z,5.80
2023-05-10T23:30:39.023Z,5.13
2023-05-10T23:33:08.333Z,5.30
2023-05-10T23:35:36.425Z,5.47
2023-05-10T23:38:04.273Z,5.67
2023-05-10T23:40:32.117Z,4.80
2023-05-10T23:42:59.988Z,5.17
2023-05-10T23:45:27.916Z,4.97
2023-05-10T23:47:57.284Z,5.10
2023-05-10T23:50:25.159Z,5.27
2023-05-10T23:52:53.032Z,5.17
2023-05-10T23:55:20.895Z,5.27
2023-05-10T23:57:48.730Z,4.97
